Time;durP1;ratioP1;P1;durP2;ratioP2;P2;SDS_P1;SDS_P2;PMS_P1;PMS_P2;Temp;Humidity;BMP_temperature;BMP_pressure;BME280_temperature;BME280_humidity;BME280_pressure;Samples;Min_cycle;Max_cycle;Signal;HPM_P1;HPM_P2
2023/08/04 00:00:37;;;;;;;3.70;1.70;;;18.20;1.00;;;;;;5010404;28;20626;-76
2023/08/04 00:03:03;;;;;;;4.50;2.07;;;18.20;1.00;;;;;;5009416;28;20229;-77
2023/08/04 00:05:28;;;;;;;4.73;2.03;;;18.20;1.00;;;;;;5009252;28;20195;-76
2023/08/04 00:07:54;;;;;;;9.03;1.90;;;18.10;1.00;;;;;;5010293;28;20186;-76
2023/08/04 00:10:20;;;;;;;4.27;2.00;;;18.10;1.00;;;;;;5007976;28;20183;-76
2023/08/04 00:12:46;;;;;;;5.23;2.50;;;18.10;1.00;;;;;;5009097;28;20784;-77
2023/08/04 00:15:11;;;;;;;3.70;2.10;;;18.10;1.00;;;;;;5007614;28;20683;-76
2023/08/04 00:17:38;;;;;;;4.73;2.00;;;18.10;1.00;;;;;;5008115;28;20183;-77
2023/08/04 00:20:08;;;;;;;5.67;2.27;;;18.10;1.00;;;;;;5009745;28;20213;-76
2023/08/04 00:22:34;;;;;;;5.10;2.13;;;18.10;1.00;;;;;;5007668;28;20473;-76
2023/08/04 00:25:00;;;;;;;3.87;2.00;;;18.10;1.00;;;;;;5008244;28;20960;-79
2023/08/04 00:27:25;;;;;;;3.33;2.10;;;18.10;1.00;;;;;;5001679;28;20433;-76
2023/08/04 00:29:51;;;;;;;3.60;2.10;;;18.20;1.00;;;;;;5003972;28;20321;-76
2023/08/04 00:32:16;;;;;;;4.27;2.00;;;18.10;1.00;;;;;;5008132;28;20203;-76
2023/08/04 00:34:42;;;;;;;4.57;2.10;;;18.10;1.00;;;;;;5010010;28;20178;-77
2023/08/04 00:37:07;;;;;;;2.93;1.90;;;18.10;1.00;;;;;;5008004;28;20497;-76
2023/08/04 00:39:33;;;;;;;4.47;2.10;;;18.10;1.00;;;;;;5008815;28;20186;-75
2023/08/04 00:41:58;;;;;;;4.70;2.00;;;18.10;1.00;;;;;;5009361;28;20214;-77
2023/08/04 00:44:24;;;;;;;4.07;2.00;;;17.90;1.00;;;;;;5008075;28;20264;-76
2023/08/04 00:46:50;;;;;;;4.00;2.13;;;18.00;1.00;;;;;;5007803;28;20262;-76
2023/08/04 00:49:18;;;;;;;4.10;2.00;;;18.00;1.00;;;;;;5008948;28;20189;-76
2023/08/04 00:51:45;;;;;;;2.97;1.97;;;18.00;1.00;;;;;;5007901;28;20203;-76
2023/08/04 00:54:10;;;;;;;4.80;2.40;;;18.00;1.00;;;;;;5008317;28;20449;-76
2023/08/04 00:56:38;;;;;;;3.97;1.97;;;18.00;1.00;;;;;;5006366;28;20564;-76
2023/08/04 00:59:03;;;;;;;3.57;2.20;;;18.00;1.00;;;;;;5007904;28;20210;-77
2023/08/04 01:01:29;;;;;;;5.00;2.27;;;18.00;1.00;;;;;;5007236;28;20484;-77
2023/08/04 01:03:56;;;;;;;4.77;2.10;;;17.90;1.00;;;;;;5008791;28;20203;-76
2023/08/04 01:06:39;;;;;;;5.23;2.10;;;18.00;1.00;;;;;;5006858;28;20175;-76
2023/08/04 01:09:30;;;;;;;3.73;2.13;;;17.90;1.00;;;;;;5005402;28;20437;-77
2023/08/04 01:12:19;;;;;;;3.80;2.00;;;17.90;1.00;;;;;;5008742;28;20478;-76
2023/08/04 01:14:49;;;;;;;3.10;1.93;;;17.90;1.00;;;;;;5007208;28;20624;-77
2023/08/04 01:17:22;;;;;;;5.90;2.10;;;17.80;1.00;;;;;;5007167;28;20453;-76
2023/08/04 01:19:47;;;;;;;5.23;1.77;;;17.80;1.00;;;;;;5007906;28;20471;-77
2023/08/04 01:22:13;;;;;;;4.23;2.00;;;17.70;1.00;;;;;;5006909;28;20469;-77
2023/08/04 01:24:38;;;;;;;7.30;2.00;;;17.70;1.00;;;;;;5001309;28;20175;-76
2023/08/04 01:27:05;;;;;;;6.67;2.13;;;17.70;1.00;;;;;;5008218;28;20210;-76
2023/08/04 01:29:31;;;;;;;6.77;2.73;;;17.70;1.00;;;;;;5007869;28;20526;-76
2023/08/04 01:31:58;;;;;;;6.40;2.23;;;17.70;1.00;;;;;;5007191;28;20514;-77
2023/08/04 01:34:24;;;;;;;2.87;1.80;;;17.70;1.00;;;;;;5005735;28;20229;-77
2023/08/04 01:36:50;;;;;;;10.43;2.00;;;17.70;1.00;;;;;;5007280;28;20840;-76
2023/08/04 01:39:16;;;;;;;4.83;2.63;;;17.60;1.00;;;;;;5007892;28;20855;-76
2023/08/04 01:41:41;;;;;;;4.53;2.07;;;17.60;1.00;;;;;;5004105;28;20535;-76
2023/08/04 01:44:07;;;;;;;5.10;2.10;;;17.60;1.00;;;;;;5005744;28;20190;-79
2023/08/04 01:46:32;;;;;;;3.00;2.20;;;17.60;1.00;;;;;;5007848;28;20186;-76
2023/08/04 01:48:58;;;;;;;5.13;2.20;;;17.60;1.00;;;;;;5008592;28;20186;-77
2023/08/04 01:51:23;;;;;;;8.40;2.30;;;17.70;1.00;;;;;;5006951;28;20210;-76
2023/08/04 01:53:49;;;;;;;3.03;1.97;;;17.60;1.00;;;;;;5006184;28;20202;-76
2023/08/04 01:56:14;;;;;;;5.73;2.27;;;17.60;1.00;;;;;;5005935;28;21634;-76
2023/08/04 01:58:40;;;;;;;2.60;1.90;;;17.60;1.00;;;;;;5007183;28;20186;-76
2023/08/04 02:01:05;;;;;;;5.30;2.20;;;17.60;1.00;;;;;;5005896;28;20233;-77
2023/08/04 02:03:33;;;;;;;3.70;2.10;;;17.50;1.00;;;;;;5006990;28;20256;-77
2023/08/04 02:05:58;;;;;;;2.73;1.70;;;17.50;1.00;;;;;;5005159;28;20178;-77
2023/08/04 02:08:24;;;;;;;3.57;2.00;;;17.50;1.00;;;;;;5005853;28;20464;-76
2023/08/04 02:10:50;;;;;;;6.10;2.00;;;17.50;1.00;;;;;;5008198;28;20222;-76
2023/08/04 02:13:15;;;;;;;3.80;2.10;;;17.50;1.00;;;;;;5005549;28;20560;-76
2023/08/04 02:15:41;;;;;;;4.43;2.47;;;17.40;1.00;;;;;;5006711;28;20209;-76
2023/08/04 02:18:07;;;;;;;3.47;2.00;;;17.30;1.00;;;;;;5006681;28;20198;-76
2023/08/04 02:20:32;;;;;;;5.90;2.10;;;17.30;1.00;;;;;;5006979;28;20213;-77
2023/08/04 02:22:58;;;;;;;4.50;1.90;;;17.30;1.00;;;;;;5007433;28;20229;-76
2023/08/04 02:25:23;;;;;;;6.50;2.43;;;17.30;1.00;;;;;;5006534;28;20186;-75
2023/08/04 02:27:49;;;;;;;5.83;2.10;;;17.30;1.00;;;;;;5000605;28;20174;-76
2023/08/04 02:30:15;;;;;;;3.83;2.50;;;17.20;1.00;;;;;;5007288;28;20540;-77
2023/08/04 02:32:40;;;;;;;4.47;2.70;;;17.20;1.00;;;;;;5006645;28;20190;-76
2023/08/04 02:35:06;;;;;;;5.33;2.40;;;17.70;1.00;;;;;;5006958;28;20577;-76
2023/08/04 02:37:32;;;;;;;4.93;2.33;;;17.30;1.00;;;;;;5007489;28;20187;-76
2023/08/04 02:39:57;;;;;;;4.30;1.93;;;17.40;1.00;;;;;;5005132;28;20541;-77
2023/08/04 02:42:24;;;;;;;7.10;2.47;;;17.30;1.00;;;;;;5005214;28;20233;-75
2023/08/04 02:44:54;;;;;;;3.23;1.90;;;17.30;1.00;;;;;;5006662;28;20265;-76
2023/08/04 02:47:20;;;;;;;8.17;1.90;;;17.30;1.00;;;;;;5006208;28;20950;-76
2023/08/04 02:49:45;;;;;;;4.00;1.90;;;17.40;1.00;;;;;;5007981;28;20429;-75
2023/08/04 02:52:14;;;;;;;8.17;2.47;;;17.20;1.00;;;;;;5004127;28;20490;-76
2023/08/04 02:54:40;;;;;;;4.40;2.10;;;17.10;1.00;;;;;;5008170;28;20186;-76
2023/08/04 02:57:06;;;;;;;4.60;1.90;;;17.10;1.00;;;;;;5007677;28;20740;-78
2023/08/04 02:59:31;;;;;;;5.80;2.00;;;17.20;1.00;;;;;;5006261;28;20663;-75
2023/08/04 03:01:57;;;;;;;3.87;2.10;;;17.20;1.00;;;;;;5007503;28;20210;-76
2023/08/04 03:04:22;;;;;;;3.60;2.43;;;17.20;1.00;;;;;;5000074;28;20183;-76
2023/08/04 03:06:48;;;;;;;9.00;2.27;;;17.30;1.00;;;;;;5007524;28;20641;-75
2023/08/04 03:09:13;;;;;;;3.10;2.00;;;17.30;1.00;;;;;;5009384;28;20193;-76
2023/08/04 03:11:39;;;;;;;5.97;1.83;;;17.30;1.00;;;;;;5009868;28;20712;-76
2023/08/04 03:14:04;;;;;;;3.50;2.00;;;17.30;1.00;;;;;;5009748;28;20182;-76
2023/08/04 03:16:30;;;;;;;3.20;1.97;;;17.30;1.00;;;;;;5010213;28;20190;-75
2023/08/04 03:18:55;;;;;;;2.73;1.93;;;17.50;1.00;;;;;;5011579;28;20194;-76
2023/08/04 03:21:21;;;;;;;2.63;1.90;;;17.30;1.00;;;;;;5011347;28;20210;-77
2023/08/04 03:23:47;;;;;;;4.53;2.10;;;17.30;1.00;;;;;;5009403;28;20206;-77
2023/08/04 03:26:12;;;;;;;4.97;2.20;;;17.30;1.00;;;;;;5012186;28;20178;-75
2023/08/04 03:28:38;;;;;;;4.10;2.27;;;17.30;1.00;;;;;;5010606;28;20178;-76
2023/08/04 03:31:03;;;;;;;3.00;1.63;;;17.60;1.00;;;;;;5010647;28;20908;-77
2023/08/04 03:33:29;;;;;;;5.30;1.93;;;17.20;1.00;;;;;;5011668;28;20648;-75
2023/08/04 03:35:54;;;;;;;4.33;1.93;;;17.20;1.00;;;;;;5006362;28;20187;-76
2023/08/04 03:38:20;;;;;;;2.57;2.03;;;17.20;1.00;;;;;;5008189;28;20182;-77
2023/08/04 03:40:46;;;;;;;2.17;1.70;;;17.30;1.00;;;;;;5009103;28;20707;-76
2023/08/04 03:43:11;;;;;;;5.40;2.20;;;17.40;1.00;;;;;;5007163;28;20231;-76
2023/08/04 03:45:36;;;;;;;3.37;2.20;;;17.40;1.00;;;;;;5009799;28;20178;-76
2023/08/04 03:48:02;;;;;;;6.30;1.83;;;17.40;1.00;;;;;;5010676;28;20178;-76
2023/08/04 03:50:28;;;;;;;10.40;2.33;;;17.40;1.00;;;;;;5009405;28;20206;-76
2023/08/04 03:52:53;;;;;;;3.90;2.10;;;17.40;1.00;;;;;;5010940;28;20248;-77
2023/08/04 03:55:19;;;;;;;5.13;2.07;;;17.40;1.00;;;;;;5009725;28;20232;-77
2023/08/04 03:57:45;;;;;;;2.90;1.90;;;17.40;1.00;;;;;;5008137;28;20194;-77
2023/08/04 04:00:10;;;;;;;4.87;2.30;;;17.30;1.00;;;;;;5009701;28;20202;-76
2023/08/04 04:02:36;;;;;;;7.37;2.03;;;17.30;1.00;;;;;;5009945;28;20284;-76
2023/08/04 04:05:02;;;;;;;5.10;1.93;;;17.30;1.00;;;;;;5011293;28;20185;-77
2023/08/04 04:07:28;;;;;;;5.77;2.23;;;17.30;1.00;;;;;;5003548;28;20178;-77
2023/08/04 04:09:53;;;;;;;4.50;1.87;;;17.40;1.00;;;;;;5008114;28;20435;-77
2023/08/04 04:12:19;;;;;;;4.87;2.00;;;17.30;1.00;;;;;;5010269;28;20217;-77
2023/08/04 04:14:44;;;;;;;6.70;2.00;;;17.30;1.00;;;;;;5008446;28;20186;-76
2023/08/04 04:17:10;;;;;;;5.03;1.93;;;17.40;1.00;;;;;;5006375;28;20189;-77
2023/08/04 04:19:36;;;;;;;4.83;2.20;;;17.30;1.00;;;;;;5009112;28;20232;-77
2023/08/04 04:22:01;;;;;;;5.03;1.97;;;17.40;1.00;;;;;;5007919;28;20209;-77
2023/08/04 04:24:27;;;;;;;6.83;2.40;;;17.30;1.00;;;;;;5009423;28;20217;-76
2023/08/04 04:26:52;;;;;;;4.10;2.20;;;17.30;1.00;;;;;;5008187;28;20257;-77
2023/08/04 04:29:18;;;;;;;7.17;2.03;;;17.70;1.00;;;;;;5009819;28;20194;-78
2023/08/04 04:31:44;;;;;;;4.63;2.23;;;17.50;1.00;;;;;;5008364;28;20283;-76
2023/08/04 04:34:09;;;;;;;4.00;2.00;;;17.50;1.00;;;;;;5010101;28;20233;-77
2023/08/04 04:36:35;;;;;;;4.43;2.20;;;18.60;1.00;;;;;;5008442;28;20601;-76
2023/08/04 04:39:01;;;;;;;3.77;2.30;;;17.60;1.00;;;;;;5008363;28;20182;-75
2023/08/04 04:41:27;;;;;;;3.20;2.40;;;17.70;1.00;;;;;;5007962;28;20576;-75
2023/08/04 04:43:53;;;;;;;5.70;2.43;;;17.70;1.00;;;;;;5008953;28;20569;-76
2023/08/04 04:46:19;;;;;;;6.70;2.27;;;17.80;1.00;;;;;;5008913;28;20437;-77
2023/08/04 04:48:44;;;;;;;2.50;1.90;;;17.80;1.00;;;;;;5006735;28;20183;-76
2023/08/04 04:51:10;;;;;;;5.30;2.30;;;17.80;1.00;;;;;;5008868;28;20198;-76
2023/08/04 04:53:35;;;;;;;3.23;2.20;;;17.80;1.00;;;;;;5008118;28;20196;-77
2023/08/04 04:56:01;;;;;;;4.63;2.50;;;17.80;1.00;;;;;;5007173;28;20191;-78
2023/08/04 04:58:26;;;;;;;7.33;2.80;;;17.80;1.00;;;;;;5006749;28;20190;-75
2023/08/04 05:01:00;;;;;;;4.93;2.37;;;17.80;1.00;;;;;;5008016;28;20206;-77
2023/08/04 05:03:25;;;;;;;5.90;2.13;;;17.80;1.00;;;;;;5010294;28;20580;-77
2023/08/04 05:05:51;;;;;;;3.43;2.00;;;17.90;1.00;;;;;;5006399;28;20439;-76
2023/08/04 05:08:16;;;;;;;4.50;2.20;;;17.80;1.00;;;;;;5009185;28;20178;-77
2023/08/04 05:10:42;;;;;;;3.73;2.10;;;17.90;1.00;;;;;;5005811;28;20221;-77
2023/08/04 05:13:07;;;;;;;3.70;2.10;;;18.00;1.00;;;;;;5007180;28;20198;-76
2023/08/04 05:15:33;;;;;;;3.77;2.57;;;18.00;1.00;;;;;;5008537;28;20221;-76
2023/08/04 05:17:58;;;;;;;4.93;2.40;;;18.10;1.00;;;;;;5009105;28;20191;-77
2023/08/04 05:20:24;;;;;;;4.70;2.00;;;18.00;1.00;;;;;;5008700;28;20218;-76
2023/08/04 05:22:49;;;;;;;5.73;2.20;;;18.00;1.00;;;;;;5007977;28;20244;-77
2023/08/04 05:25:15;;;;;;;5.00;2.43;;;18.00;1.00;;;;;;5008528;28;20256;-76
2023/08/04 05:27:41;;;;;;;3.90;2.40;;;18.00;1.00;;;;;;5005087;28;20228;-76
2023/08/04 05:30:07;;;;;;;3.90;2.13;;;18.10;1.00;;;;;;5004989;28;20555;-77
2023/08/04 05:32:32;;;;;;;7.90;2.10;;;18.20;1.00;;;;;;5006713;28;20206;-76
2023/08/04 05:34:58;;;;;;;4.40;2.23;;;18.30;1.00;;;;;;5008436;28;20464;-76
2023/08/04 05:37:23;;;;;;;4.10;2.10;;;18.20;1.00;;;;;;5009324;28;20205;-76
2023/08/04 05:39:50;;;;;;;8.70;2.30;;;18.20;1.00;;;;;;5008990;28;20194;-76
2023/08/04 05:42:15;;;;;;;6.10;2.27;;;18.20;1.00;;;;;;5009385;28;20459;-76
2023/08/04 05:44:41;;;;;;;6.17;2.30;;;18.30;1.00;;;;;;5006371;28;20524;-77
2023/08/04 05:47:06;;;;;;;5.20;2.10;;;18.40;1.00;;;;;;5008011;28;20182;-76
2023/08/04 05:49:32;;;;;;;5.10;2.00;;;18.20;1.00;;;;;;5009824;28;20826;-74
2023/08/04 05:51:59;;;;;;;3.30;1.73;;;18.30;1.00;;;;;;5009364;28;20202;-75
2023/08/04 05:54:24;;;;;;;3.83;2.07;;;18.40;1.00;;;;;;5010546;28;20183;-76
2023/08/04 05:56:50;;;;;;;3.00;2.10;;;18.30;1.00;;;;;;5009973;28;20924;-75
2023/08/04 05:59:15;;;;;;;3.73;1.90;;;18.40;1.00;;;;;;5010315;28;20187;-75
2023/08/04 06:01:41;;;;;;;6.20;2.20;;;18.40;1.00;;;;;;5010133;28;20209;-75
2023/08/04 06:04:06;;;;;;;5.40;2.20;;;18.30;1.00;;;;;;5005861;28;20210;-76
2023/08/04 06:06:32;;;;;;;4.00;2.20;;;18.40;1.00;;;;;;4969539;28;20202;-77
2023/08/04 06:08:57;;;;;;;8.30;2.73;;;18.40;1.00;;;;;;4998673;28;20304;-75
2023/08/04 06:11:23;;;;;;;5.10;1.87;;;18.40;1.00;;;;;;4999972;28;20210;-76
2023/08/04 06:13:48;;;;;;;4.00;1.90;;;18.40;1.00;;;;;;5003152;28;20645;-76
2023/08/04 06:16:14;;;;;;;4.33;1.93;;;18.40;1.00;;;;;;5006237;28;20667;-75
2023/08/04 06:18:40;;;;;;;4.13;1.90;;;18.40;1.00;;;;;;5007951;28;20668;-75
2023/08/04 06:21:06;;;;;;;5.77;2.03;;;18.50;1.00;;;;;;5004542;28;20202;-75
2023/08/04 06:23:31;;;;;;;5.73;2.00;;;18.40;1.00;;;;;;5008440;28;20484;-75
2023/08/04 06:25:57;;;;;;;3.20;1.90;;;18.30;1.00;;;;;;5008302;28;20514;-75
2023/08/04 06:28:22;;;;;;;3.73;2.17;;;18.40;1.00;;;;;;5010549;28;20256;-75
2023/08/04 06:30:48;;;;;;;5.80;2.07;;;18.40;1.00;;;;;;5004411;28;20198;-77
2023/08/04 06:33:13;;;;;;;3.47;2.00;;;18.50;1.00;;;;;;5003189;28;20182;-77
2023/08/04 06:35:41;;;;;;;2.67;1.87;;;18.50;1.00;;;;;;5002616;28;20190;-76
2023/08/04 06:38:08;;;;;;;3.70;2.00;;;18.60;1.00;;;;;;5006096;28;20268;-76
2023/08/04 06:40:34;;;;;;;5.77;2.20;;;18.50;1.00;;;;;;5004948;28;20469;-77
2023/08/04 06:42:59;;;;;;;4.60;2.10;;;18.40;1.00;;;;;;5009631;28;20465;-76
2023/08/04 06:45:25;;;;;;;3.33;2.10;;;18.40;1.00;;;;;;5010629;28;20210;-77
2023/08/04 06:47:51;;;;;;;6.83;2.10;;;18.50;1.00;;;;;;5009222;28;20182;-77
2023/08/04 06:50:17;;;;;;;4.60;2.00;;;19.00;1.00;;;;;;5011864;28;20460;-77
2023/08/04 06:52:42;;;;;;;6.77;2.10;;;19.00;1.00;;;;;;5010007;28;20214;-78
2023/08/04 06:55:08;;;;;;;4.60;1.90;;;19.20;1.00;;;;;;5011393;28;20187;-77
2023/08/04 06:57:33;;;;;;;8.80;2.30;;;19.20;1.00;;;;;;5005063;28;20660;-74
2023/08/04 06:59:59;;;;;;;5.50;1.90;;;19.30;1.00;;;;;;5008095;28;20179;-74
2023/08/04 07:02:24;;;;;;;4.70;1.70;;;19.20;1.00;;;;;;5004206;28;20289;-74
2023/08/04 07:04:50;;;;;;;4.63;2.23;;;19.60;1.00;;;;;;5006415;28;20190;-74
2023/08/04 07:07:15;;;;;;;2.80;1.80;;;19.20;1.00;;;;;;5007681;28;20198;-74
2023/08/04 07:09:41;;;;;;;3.43;1.80;;;19.20;1.00;;;;;;5006988;28;20182;-75
2023/08/04 07:12:07;;;;;;;6.23;2.20;;;19.20;1.00;;;;;;5003308;28;20237;-74
2023/08/04 07:14:33;;;;;;;3.67;2.27;;;19.30;1.00;;;;;;5004398;28;20197;-74
2023/08/04 07:16:59;;;;;;;4.93;2.33;;;18.30;1.00;;;;;;5006473;28;20436;-74
2023/08/04 07:19:25;;;;;;;3.23;2.00;;;19.20;1.00;;;;;;5006508;28;20453;-74
2023/08/04 07:21:50;;;;;;;4.93;2.30;;;19.40;1.00;;;;;;5007293;28;20538;-74
2023/08/04 07:24:16;;;;;;;3.87;1.87;;;19.30;1.00;;;;;;5002602;28;20213;-74
2023/08/04 07:26:41;;;;;;;6.07;2.00;;;19.30;1.00;;;;;;5004545;28;20236;-74
2023/08/04 07:29:07;;;;;;;4.43;1.97;;;19.40;1.00;;;;;;5003490;28;20187;-74
2023/08/04 07:31:33;;;;;;;7.30;2.30;;;19.50;1.00;;;;;;5006361;28;20218;-75
2023/08/04 07:33:59;;;;;;;5.20;2.13;;;19.60;1.00;;;;;;5006409;28;20472;-74
2023/08/04 07:36:24;;;;;;;5.47;2.50;;;19.70;1.00;;;;;;5002285;28;20194;-76
2023/08/04 07:38:50;;;;;;;6.80;2.90;;;19.60;1.00;;;;;;5005055;28;20450;-76
2023/08/04 07:41:20;;;;;;;11.33;2.67;;;19.70;1.00;;;;;;5005574;28;20203;-76
2023/08/04 07:43:46;;;;;;;6.40;2.33;;;19.80;1.00;;;;;;5004161;28;20260;-75
2023/08/04 07:46:18;;;;;;;6.60;2.77;;;19.90;1.00;;;;;;4999401;28;20943;-77
2023/08/04 07:48:43;;;;;;;5.63;2.87;;;19.90;1.00;;;;;;5006769;28;20210;-76
2023/08/04 07:51:09;;;;;;;8.03;2.57;;;20.00;1.00;;;;;;5005990;28;20457;-75
2023/08/04 07:53:34;;;;;;;4.37;2.43;;;20.00;1.00;;;;;;5004180;28;20202;-77
2023/08/04 07:56:00;;;;;;;3.93;2.30;;;20.00;1.00;;;;;;5005740;28;20187;-76
2023/08/04 07:58:25;;;;;;;6.50;2.50;;;20.10;1.00;;;;;;5007541;28;20182;-75
2023/08/04 08:00:51;;;;;;;4.27;2.83;;;20.10;1.00;;;;;;5002166;28;20580;-76
2023/08/04 08:03:17;;;;;;;4.60;2.67;;;20.40;1.00;;;;;;5002508;28;20199;-76
2023/08/04 08:05:43;;;;;;;4.77;2.50;;;20.50;1.00;;;;;;5004745;28;20613;-76
2023/08/04 08:08:08;;;;;;;8.27;3.20;;;20.50;1.00;;;;;;5002991;28;20479;-77
2023/08/04 08:10:34;;;;;;;6.30;3.40;;;20.90;1.00;;;;;;5003280;28;20256;-77
2023/08/04 08:13:01;;;;;;;6.20;3.60;;;20.70;1.00;;;;;;5005885;28;20192;-78
2023/08/04 08:15:27;;;;;;;5.20;3.40;;;20.70;1.00;;;;;;5002072;28;20179;-76
2023/08/04 08:17:52;;;;;;;6.37;3.60;;;21.00;1.00;;;;;;5005101;28;21127;-76
2023/08/04 08:20:18;;;;;;;8.37;4.20;;;21.80;1.00;;;;;;5004162;28;20197;-78
2023/08/04 08:22:43;;;;;;;4.03;2.97;;;21.90;1.00;;;;;;5006122;28;20210;-76
2023/08/04 08:25:12;;;;;;;7.20;3.30;;;22.00;1.00;;;;;;5005427;28;20606;-76
2023/08/04 08:27:38;;;;;;;4.10;3.37;;;21.80;1.00;;;;;;5003862;28;20178;-76
2023/08/04 08:30:04;;;;;;;5.47;3.20;;;21.40;1.00;;;;;;5004496;28;20445;-75
2023/08/04 08:32:29;;;;;;;4.60;3.40;;;21.30;1.00;;;;;;5003374;28;20685;-77
2023/08/04 08:34:55;;;;;;;4.67;3.10;;;21.50;1.00;;;;;;5004193;28;20452;-77
2023/08/04 08:37:20;;;;;;;5.37;3.57;;;21.80;1.00;;;;;;5006204;28;20746;-77
2023/08/04 08:39:46;;;;;;;5.90;2.90;;;22.20;1.00;;;;;;5004382;28;20214;-78
2023/08/04 08:42:11;;;;;;;4.10;2.87;;;23.20;1.00;;;;;;5004355;28;20216;-77
2023/08/04 08:44:37;;;;;;;5.17;2.80;;;24.40;1.00;;;;;;5005080;28;20345;-76
2023/08/04 08:47:02;;;;;;;5.90;3.60;;;25.20;1.00;;;;;;5005480;28;20193;-76
2023/08/04 08:49:33;;;;;;;4.03;3.07;;;25.00;1.00;;;;;;5005638;28;20182;-77
2023/08/04 08:51:59;;;;;;;4.13;2.60;;;24.70;1.00;;;;;;5004262;28;20212;-78
2023/08/04 08:54:27;;;;;;;4.27;2.20;;;24.70;1.00;;;;;;5002947;28;21022;-77
2023/08/04 08:56:52;;;;;;;4.07;2.70;;;24.30;1.00;;;;;;5004109;28;20823;-76
2023/08/04 08:59:18;;;;;;;3.80;2.50;;;23.70;1.00;;;;;;5004525;28;20474;-76
2023/08/04 09:01:44;;;;;;;3.30;2.20;;;23.30;1.00;;;;;;5005470;28;20236;-77
2023/08/04 09:04:09;;;;;;;3.07;2.27;;;23.10;1.00;;;;;;5003316;28;20732;-76
2023/08/04 09:06:35;;;;;;;3.03;2.10;;;22.70;1.00;;;;;;5001607;28;20178;-75
2023/08/04 09:09:02;;;;;;;3.10;2.30;;;22.60;1.00;;;;;;5001676;28;20204;-76
2023/08/04 09:11:29;;;;;;;4.87;2.73;;;22.70;1.00;;;;;;5003354;28;20256;-77
2023/08/04 09:13:55;;;;;;;4.20;2.70;;;23.00;1.00;;;;;;5001724;28;20437;-76
2023/08/04 09:16:36;;;;;;;4.77;2.30;;;23.10;1.00;;;;;;5004067;28;21193;-75
2023/08/04 09:19:06;;;;;;;4.43;2.67;;;23.50;1.00;;;;;;5000331;28;20511;-76
2023/08/04 09:21:33;;;;;;;4.50;2.57;;;24.10;1.00;;;;;;5004435;28;20480;-76
2023/08/04 09:24:00;;;;;;;5.40;2.67;;;25.00;1.00;;;;;;5000258;28;20457;-77
2023/08/04 09:26:39;;;;;;;3.93;2.70;;;24.90;1.00;;;;;;5001366;28;20472;-76
2023/08/04 09:29:06;;;;;;;3.50;2.50;;;24.30;1.00;;;;;;5000951;28;20429;-77
2023/08/04 09:31:39;;;;;;;3.30;2.40;;;23.70;1.00;;;;;;5002471;28;20486;-77
2023/08/04 09:34:06;;;;;;;4.00;2.50;;;23.20;1.00;;;;;;5001614;28;20448;-75
2023/08/04 09:36:37;;;;;;;2.77;1.90;;;22.70;1.00;;;;;;5002944;28;20437;-76
2023/08/04 09:39:04;;;;;;;3.10;2.20;;;22.50;1.00;;;;;;5002925;28;20491;-76
2023/08/04 09:41:36;;;;;;;3.03;2.10;;;22.40;1.00;;;;;;5000410;28;20467;-78
2023/08/04 09:44:06;;;;;;;3.60;2.20;;;23.10;1.00;;;;;;5023196;28;20480;-75
2023/08/04 09:46:38;;;;;;;3.60;2.40;;;25.80;1.00;;;;;;5002738;28;20444;-76
2023/08/04 09:49:03;;;;;;;3.33;2.30;;;28.10;1.00;;;;;;5001588;28;20431;-77
2023/08/04 09:51:29;;;;;;;3.60;2.23;;;28.60;1.00;;;;;;4999654;28;20544;-79
2023/08/04 09:53:54;;;;;;;3.67;2.60;;;27.50;1.00;;;;;;5003412;28;20237;-78
2023/08/04 09:56:23;;;;;;;3.37;2.20;;;26.20;1.00;;;;;;5000644;28;20190;-78
2023/08/04 09:58:49;;;;;;;3.50;2.30;;;25.10;1.00;;;;;;5000725;28;20190;-76
2023/08/04 10:01:16;;;;;;;3.90;2.70;;;24.50;1.00;;;;;;5004017;28;20984;-76
2023/08/04 10:03:51;;;;;;;4.07;2.77;;;24.10;1.00;;;;;;5001651;28;20285;-75
2023/08/04 10:06:17;;;;;;;4.43;2.30;;;24.20;1.00;;;;;;5006583;28;20424;-75
2023/08/04 10:08:43;;;;;;;3.10;2.03;;;24.20;1.00;;;;;;5001543;28;20958;-75
2023/08/04 10:11:09;;;;;;;4.00;2.40;;;25.00;1.00;;;;;;5004796;28;20222;-75
2023/08/04 10:13:41;;;;;;;3.57;2.50;;;25.00;1.00;;;;;;5003258;28;20223;-75
2023/08/04 10:16:14;;;;;;;3.23;2.40;;;25.60;1.00;;;;;;5000735;28;20213;-76
2023/08/04 10:18:51;;;;;;;4.53;2.40;;;26.10;1.00;;;;;;5004610;28;20448;-76
2023/08/04 10:21:27;;;;;;;3.70;2.30;;;26.90;1.00;;;;;;5003865;28;20482;-75
2023/08/04 10:23:53;;;;;;;3.60;2.30;;;27.50;1.00;;;;;;5004536;28;20824;-75
2023/08/04 10:26:19;;;;;;;4.13;2.13;;;28.40;1.00;;;;;;5008407;28;20417;-75
2023/08/04 10:29:14;;;;;;;3.90;2.33;;;28.90;1.00;;;;;;5004007;28;20182;-75
2023/08/04 10:31:53;;;;;;;3.87;2.10;;;29.10;1.00;;;;;;4992030;28;20218;-75
2023/08/04 10:34:26;;;;;;;4.90;2.20;;;28.60;1.00;;;;;;5007605;28;20240;-75
2023/08/04 10:36:54;;;;;;;3.10;1.90;;;27.80;1.00;;;;;;5005799;28;20190;-75
2023/08/04 10:39:31;;;;;;;3.47;2.20;;;27.50;1.00;;;;;;5006075;28;20185;-75
2023/08/04 10:41:58;;;;;;;3.40;2.10;;;27.10;1.00;;;;;;5008165;28;20504;-75
2023/08/04 10:44:27;;;;;;;4.70;2.00;;;26.60;1.00;;;;;;5008413;28;20460;-75
2023/08/04 10:46:59;;;;;;;3.10;1.90;;;26.40;1.00;;;;;;5001422;28;21659;-76
2023/08/04 10:49:25;;;;;;;4.20;2.17;;;26.40;1.00;;;;;;5009331;28;20476;-75
2023/08/04 10:51:52;;;;;;;2.90;1.90;;;26.70;1.00;;;;;;5002511;28;20538;-74
2023/08/04 10:54:18;;;;;;;4.70;1.80;;;26.10;1.00;;;;;;5007249;28;20692;-74
2023/08/04 10:56:46;;;;;;;3.07;2.33;;;25.60;1.00;;;;;;5008940;28;20425;-75
2023/08/04 10:59:11;;;;;;;3.00;2.00;;;25.40;1.00;;;;;;4981606;28;20425;-75
2023/08/04 11:01:37;;;;;;;2.60;1.60;;;25.40;1.00;;;;;;4994430;28;20457;-75
2023/08/04 11:04:02;;;;;;;2.97;1.97;;;25.30;1.00;;;;;;4997995;28;20711;-76
2023/08/04 11:06:28;;;;;;;2.70;1.80;;;26.30;1.00;;;;;;5004275;28;20194;-77
2023/08/04 11:08:55;;;;;;;3.67;2.10;;;28.60;1.00;;;;;;5003159;28;20795;-77
2023/08/04 11:11:21;;;;;;;2.93;1.90;;;31.50;1.00;;;;;;4989709;28;20217;-77
2023/08/04 11:13:47;;;;;;;3.70;2.05;;;32.90;1.00;;;;;;5000986;28;20185;-76
2023/08/04 11:16:16;;;;;;;2.88;1.77;;;32.90;1.00;;;;;;5003443;28;20740;-76
2023/08/04 11:18:42;;;;;;;3.90;2.00;;;32.40;1.00;;;;;;5005409;28;20421;-76
2023/08/04 11:21:07;;;;;;;2.80;1.70;;;31.40;1.00;;;;;;5001272;28;20210;-76
2023/08/04 11:23:33;;;;;;;3.25;1.80;;;30.90;1.00;;;;;;5005098;28;20208;-77
2023/08/04 11:25:59;;;;;;;2.97;1.90;;;30.80;1.00;;;;;;4999601;28;20190;-76
2023/08/04 11:28:25;;;;;;;3.10;1.90;;;31.00;1.00;;;;;;5001589;28;20186;-77
2023/08/04 11:30:52;;;;;;;3.67;1.90;;;31.70;1.00;;;;;;5003508;28;20595;-77
2023/08/04 11:33:18;;;;;;;3.38;1.80;;;31.50;1.00;;;;;;5008902;28;20270;-76
2023/08/04 11:35:45;;;;;;;4.60;2.75;;;30.70;1.00;;;;;;5008441;28;20237;-75
2023/08/04 11:38:11;;;;;;;6.90;2.97;;;29.50;1.00;;;;;;5005343;28;20470;-76
2023/08/04 11:40:52;;;;;;;5.60;4.03;;;28.20;1.00;;;;;;5008531;28;20632;-76
2023/08/04 11:43:17;;;;;;;4.80;3.60;;;27.30;1.00;;;;;;5006742;28;20974;-76
2023/08/04 11:45:47;;;;;;;4.67;3.47;;;27.20;1.00;;;;;;5006107;28;20480;-77
2023/08/04 11:48:12;;;;;;;4.60;3.60;;;28.80;1.00;;;;;;5005484;28;20185;-76
2023/08/04 11:50:38;;;;;;;4.27;3.33;;;30.00;1.00;;;;;;5006824;28;20202;-77
2023/08/04 11:53:03;;;;;;;5.80;3.70;;;30.60;1.00;;;;;;5008458;28;20189;-77
2023/08/04 11:55:29;;;;;;;4.60;3.63;;;30.40;1.00;;;;;;5007183;28;20193;-75
2023/08/04 11:57:55;;;;;;;6.50;4.07;;;30.00;1.00;;;;;;5006419;28;20745;-76
2023/08/04 12:00:34;;;;;;;3.88;3.10;;;31.50;1.00;;;;;;5008629;28;20190;-76
2023/08/04 12:03:02;;;;;;;4.10;3.25;;;31.80;1.00;;;;;;5006887;28;20198;-76
2023/08/04 12:05:30;;;;;;;6.07;3.33;;;33.10;1.00;;;;;;5008162;28;20186;-77
2023/08/04 12:07:56;;;;;;;4.75;3.78;;;33.10;1.00;;;;;;5007126;28;20174;-77
2023/08/04 12:10:23;;;;;;;4.72;3.35;;;30.10;1.00;;;;;;5007922;28;20184;-76
2023/08/04 12:12:50;;;;;;;5.28;3.97;;;30.00;1.00;;;;;;5007578;28;20181;-75
2023/08/04 12:15:15;;;;;;;4.50;3.60;;;29.70;1.00;;;;;;5007868;28;20201;-76
2023/08/04 12:17:43;;;;;;;5.13;3.42;;;31.00;1.00;;;;;;5005822;28;20600;-77
2023/08/04 12:20:10;;;;;;;5.43;3.42;;;32.70;1.00;;;;;;5006199;28;20186;-75
2023/08/04 12:22:40;;;;;;;4.90;3.50;;;31.80;1.00;;;;;;5007629;28;20205;-76
2023/08/04 12:25:07;;;;;;;4.35;3.20;;;30.70;1.00;;;;;;5006182;28;20443;-76
2023/08/04 12:27:33;;;;;;;5.28;3.60;;;30.10;1.00;;;;;;5007001;28;20189;-76
2023/08/04 12:29:58;;;;;;;8.93;4.00;;;29.90;1.00;;;;;;5008020;28;20209;-76
2023/08/04 12:32:24;;;;;;;5.47;3.73;;;29.60;1.00;;;;;;5007532;28;20680;-75
2023/08/04 12:34:50;;;;;;;6.47;4.03;;;29.00;1.00;;;;;;5008178;28;20653;-76
2023/08/04 12:37:15;;;;;;;7.53;4.40;;;28.30;1.00;;;;;;5006323;28;20296;-75
2023/08/04 12:39:44;;;;;;;14.03;10.47;;;27.60;1.00;;;;;;5008488;28;20182;-77
2023/08/04 12:42:10;;;;;;;7.40;5.60;;;27.40;1.00;;;;;;5007371;28;20194;-77
2023/08/04 12:44:35;;;;;;;6.03;3.70;;;29.40;1.00;;;;;;5003111;28;20553;-77
2023/08/04 12:47:01;;;;;;;4.07;3.40;;;31.20;1.00;;;;;;5005289;28;20177;-76
2023/08/04 12:49:26;;;;;;;4.28;3.60;;;32.10;1.00;;;;;;5004993;28;20202;-76
2023/08/04 12:51:52;;;;;;;4.70;3.58;;;32.30;1.00;;;;;;5001680;28;20194;-77
2023/08/04 12:54:17;;;;;;;6.18;3.50;;;31.20;1.00;;;;;;5003121;28;21338;-77